Kirkville, IA (52566)

2:01 AM CST on February 06, 2016 (GMT -0600)
Ottumwa Industrial | | Change Station
CLOSE
Current Station
Airport
Location: Ottumwa,
Elevation: 843 ft
Nearby Weather Stations

Elev 843 ft 41.11 °N, 92.45 °W | Updated 8 minutes ago

Mostly Cloudy
Mostly Cloudy
29 °F
Feels Like 29 °F
N
0
Wind Variable Wind from North

Today
High -- | Low -- °F
--% Chance of Precip.
Yesterday
High -- | Low -- °F
Precip. -- in
Pressure 30.30 in
Visibility 10.0 miles
Clouds Mostly Cloudy 3000 ft
Dew Point 22 °F
Humidity 75%
Rainfall 0.00 in
Snow Depth Not available.
7:15 AM 5:32 PM
Waning Crescent, 7% visible
METAR KOTM 060753Z AUTO 00000KT 10SM BKN030 M02/M06 A3027 RMK AO2 SLP259 T10171056
Pressure 30.30 in
Visibility 10.0 miles
Clouds Mostly Cloudy 3000 ft
Dew Point 22 °F
Humidity 75%
Rainfall 0.00 in
Snow Depth Not available.
7:15 AM 5:32 PM
Waning Crescent, 7% visible
METAR KOTM 060753Z AUTO 00000KT 10SM BKN030 M02/M06 A3027 RMK AO2 SLP259 T10171056

10-Day Weather Forecast

Almanac

Astronomy

Feb. 06, 2016 Rise Set
Actual Time
Civil Twilight
Nautical Twilight
Astronomical Twilight
Moon
Length of Visible Light
Length of Day
Tomorrow will be .
, % of the Moon is Illuminated

Today's Extremes

State Highs State Lows

Community

WunderPhotos

Upload Photos

1,890,933 photos uploaded!

WunderBlog® & News

Nearby

Air Quality

  Air Quality AQ Index Pollutant
Not available.

Snow Depth

Station Depth Elevation

Earthquake Activity

City Distance Mag. Time & Date
Minimum magnitude displayed is 2.5.

Coastal Water Temperatures

Place Temperature

Stations

Nearby Weather Stations

Station Location Temp. Windchill Dew Point Humidity Wind Precip. Elev Updated Type
                   

Watches & Warnings

There are currently no watches in effect.